• Join FlightAware (Why Join?)
  • Login
  • US Flag 
12:18PM EDT


 

Airport Tracker/Info


-or-


 

Live Flight TrackerFlight Track Log ✈ UAL4536 ✈ 16-Jun-2013 ✈ KEWR - KCVG

Flight Track Log - Related Links

Times and Time Zones

All times are in EDT time to prevent confusion due to time zone crossing. See the UAL4536 flight status page for this flight to view local times or setup timezone preferences in your user account.

Time Position Orientation Groundspeed Altitude Reporting Facility
EDT Latitude Longitude Course Direction KTS MPH feet Rate Location/Type
08:38PM 40.6500 -74.1833 270° West 179 206 1,800  Level New York TRACON
08:39PM 40.6167 -74.2500 237° Southwest 215 247 4,100 2,340 Climbing New York TRACON
08:40PM 40.6167 -74.3333 270° West 257 296 6,500 2,520 Climbing New York TRACON
08:41PM 40.6834 -74.6291 270° West  Level FlightAware Approximate
08:41PM 40.6167 -74.4333 270° West 270 311 9,200  Level New York TRACON
08:42PM 40.6834 -74.7447 270° West  Level FlightAware Approximate
08:43PM 40.6834 -74.8603 270° West  Level FlightAware Approximate
08:43PM 40.6444 -74.6903 278° West 320 368 12,700  Level New York Center
08:44PM 40.6589 -74.8169 279° West 352 405 14,500 1,740 Climbing New York Center
08:45PM 40.6714 -74.9408 278° West 352 405 16,200 1,680 Climbing New York Center
08:46PM 40.6794 -75.0644 275° West 352 405 17,900 1,500 Climbing New York Center
08:47PM 40.6422 -75.1689 245° Southwest 338 389 19,300 1,260 Climbing New York Center
08:48PM 40.5922 -75.2806 240° Southwest 350 403 20,400 1,140 Climbing New York Center
08:49PM 40.5397 -75.3944 239° Southwest 362 417 21,600 1,140 Climbing New York Center
08:50PM 40.4853 -75.5108 238° Southwest 370 426 22,800 1,140 Climbing New York Center
08:51PM 40.4347 -75.6247 240° Southwest 370 426 23,900 1,200 Climbing New York Center
08:52PM 40.3819 -75.7381 239° Southwest 370 426 25,300 1,440 Climbing New York Center
08:53PM 40.3314 -75.8489 239° Southwest 370 426 26,800 1,560 Climbing New York Center
08:54PM 40.2719 -75.9697 237° Southwest 375 432 28,400 1,500 Climbing New York Center
08:55PM 40.2214 -76.0747 238° Southwest 368 423 29,900 1,320 Climbing New York Center
08:56PM 40.1822 -76.1586 239° Southwest 355 409 31,100 1,440 Climbing New York Center
08:57PM 40.1292 -76.2683 238° Southwest 343 395 32,800 1,440 Climbing New York Center
08:58PM 40.0806 -76.3706 238° Southwest 333 383 34,000 1,200 Climbing New York Center
08:59PM 40.0361 -76.4728 240° Southwest 328 377 35,200 600 Climbing New York Center
09:01PM 39.9358 -76.6900 239° Southwest 335 386 36,000 240 Climbing Washington Center
09:02PM 39.8764 -76.8081 237° Southwest 347 399 36,000  Level Washington Center
09:03PM 39.8231 -76.9289 240° Southwest 368 423 36,000  Level Washington Center
09:04PM 39.7675 -77.0464 238° Southwest 380 437 36,000  Level Washington Center
09:05PM 39.7075 -77.1667 237° Southwest 394 453 36,000  Level Washington Center
09:06PM 39.6517 -77.2894 239° Southwest 394 453 36,000  Level Washington Center
09:07PM 39.5981 -77.4067 239° Southwest 399 459 36,000  Level Washington Center
09:08PM 39.5397 -77.5264 238° Southwest 399 459 36,000  Level Washington Center
09:09PM 39.4836 -77.6458 239° Southwest 399 459 36,000  Level Washington Center
09:10PM 39.4231 -77.7703 238° Southwest 399 459 36,000  Level Washington Center
09:11PM 39.3708 -77.8922 241° Southwest 399 459 36,000  Level Washington Center
09:12PM 39.3206 -78.0142 242° Southwest 394 453 36,000  Level Washington Center
09:13PM 39.2719 -78.1411 244° Southwest 394 453 36,000  Level Washington Center
09:14PM 39.2214 -78.2600 241° Southwest 389 448 36,000  Level Washington Center
09:15PM 39.1772 -78.3708 243° Southwest 383 441 36,000  Level Washington Center
09:16PM 39.1264 -78.4975 243° Southwest 383 441 36,000  Level Washington Center
09:17PM 39.0858 -78.6242 248° West 388 447 36,000  Level Washington Center
09:18PM 39.0697 -78.7572 261° West 383 441 36,000  Level Washington Center
09:19PM 39.0517 -78.8875 260° West 378 435 36,000  Level Washington Center
09:20PM 39.0333 -79.0228 260° West 378 435 36,000  Level Washington Center
09:21PM 39.0169 -79.1583 261° West 378 435 36,000  Level Washington Center
09:22PM 39.0003 -79.2936 261° West 391 450 36,000  Level Washington Center
09:23PM 38.9814 -79.4289 260° West 391 450 36,000  Level Washington Center
09:24PM 38.9647 -79.5589 261° West 391 450 36,000  Level Washington Center
09:25PM 38.9447 -79.7181 261° West 399 459 36,000  Level Washington Center
09:26PM 38.9258 -79.8425 259° West 405 466 36,000 -180 Level Washington Center
09:27PM 38.9153 -79.9119 259° West 384 442 35,800 -660 Descending Indianapolis Center
09:28PM 38.8947 -80.0464 259° West 387 445 35,000 -420 Descending Indianapolis Center
09:29PM 38.8753 -80.1872 260° West 395 455 35,000  Level Indianapolis Center
09:30PM 38.8558 -80.3258 260° West 395 455 35,000  Level Indianapolis Center
09:31PM 38.8328 -80.4894 260° West 388 447 35,000  Level Indianapolis Center
09:32PM 38.8119 -80.6256 259° West 388 447 35,000  Level Indianapolis Center
09:33PM 38.7931 -80.7622 260° West 390 449 35,000 -120 Level Indianapolis Center
09:34PM 38.7728 -80.8989 259° West 389 448 34,800 -660 Descending Indianapolis Center
09:35PM 38.7525 -81.0347 259° West 389 448 33,700 -1,200 Descending Indianapolis Center
09:36PM 38.7319 -81.1719 259° West 392 451 32,400 -1,260 Descending Indianapolis Center
09:37PM 38.7117 -81.3111 259° West 395 455 31,200 -1,140 Descending Indianapolis Center
09:38PM 38.6875 -81.4658 259° West 404 465 30,100 -600 Descending Indianapolis Center
09:39PM 38.6667 -81.6117 260° West 414 476 30,000 -480 Descending Indianapolis Center
09:40PM 38.6433 -81.7569 258° West 416 479 29,200 -960 Descending Indianapolis Center
09:41PM 38.6217 -81.8992 259° West 410 472 28,100 -1,140 Descending Indianapolis Center
09:42PM 38.5989 -82.0456 259° West 418 481 27,000 -1,080 Descending Indianapolis Center
09:43PM 38.5753 -82.1972 259° West 431 496 26,000 -1,080 Descending Indianapolis Center
09:44PM 38.5511 -82.3442 258° West 426 490 24,900 -1,080 Descending Indianapolis Center
09:45PM 38.5247 -82.5092 258° West 416 479 23,800 -1,080 Descending Indianapolis Center
09:46PM 38.5014 -82.6519 258° West 413 475 22,800 -1,080 Descending Indianapolis Center
09:47PM 38.5008 -82.7939 270° West 399 459 21,700 -1,080 Descending Indianapolis Center
09:48PM 38.5156 -82.9353 278° West 400 460 20,600 -1,080 Descending Indianapolis Center
09:49PM 38.5303 -83.0692 278° West 388 447 19,600 -1,080 Descending Indianapolis Center
09:50PM 38.5442 -83.2056 277° West 388 447 18,500 -1,020 Descending Indianapolis Center
09:52PM 38.5578 -83.3419 277° West 388 447 17,600 -1,620 Descending Indianapolis Center
09:53PM 38.5731 -83.4992 277° West 385 443 15,300 -2,100 Descending Indianapolis Center
09:54PM 38.5864 -83.6339 277° West 382 440 13,300 -1,980 Descending Indianapolis Center
09:55PM 38.5992 -83.7617 277° West 367 422 11,300 -1,620 Descending Indianapolis Center
09:56PM 38.6103 -83.8858 277° West 355 409 10,100 -660 Descending Indianapolis Center
09:57PM 38.6497 -83.9944 295° West 348 400 10,000 -480 Descending Indianapolis Center
09:58PM 38.6953 -84.0797 304° West 300 345 9,200 -1,260 Descending Indianapolis Center
09:59PM 38.7247 -84.1661 294° West 261 300 7,500 -1,380 Descending Indianapolis Center
10:00PM 38.7500 -84.2517 291° West 255 293 6,400 -1,080 Descending Indianapolis Center
10:01PM 38.7747 -84.3389 290° West 257 296 5,400 -720 Descending Indianapolis Center
10:02PM 38.8006 -84.4233 291° West 254 292 5,000 -240 Descending Indianapolis Center
10:03PM 38.8244 -84.5056 290° West 248 285 5,000 -420 Level Indianapolis Center
10:04PM 38.8492 -84.5950 290° West 244 281 4,200 -840 Descending Indianapolis Center
10:05PM 38.8908 -84.6567 311° West 242 278 3,300 -840 Descending Indianapolis Center
10:05PM 38.9167 -84.6667 343° North 231 266 3,100 -600 Descending Cincinnati TRACON